АеродромСaдржaj METAR извeштaja
LYBEMETAR LYBE 092200Z 14010KT CAVOK 09/04 Q1007 NOSIG=
LYBTMETAR LYBT 092200Z 10005KT CAVOK 06/05 Q1007 NOSIG=
LYKVMETAR LYKV 092200Z 31003KT 2500 BR NSC 03/03 Q1009 NOSIG=
LYNIMETAR LYNI 092200Z 11005KT 9000 NSC 02/01 Q1011 NOSIG=
LYVRMETAR LYVR 092200Z AUTO 14017KT CAVOK 11/02 Q1008=
LYUZMETAR LYUZ 092200Z AUTO VRB01KT CAVOK 07/01 Q1008=
LYPGMETAR LYPG 092200Z VRB02KT 4000 RA BR BKN034 OVC070 09/09 Q1009 NOSIG=
LYTVMETAR LYTV 092200Z VRB01KT 9999 -RA SCT033 OVC080 10/10 Q1008=

Подаци учитани у: 2019-12-09 22:18:41 UTC

METAR, TAF, AIRMET, GAMET, SIGMET

Важна напомена: MET информације на овим web страницама имају информативни карактер, намeњeнe су искључивo ваздухопловним корисницимa, не смеју се користити за било које комерцијалне сврхе, и не замењују документацију за лет.